Aérodrome :
LOGIN :

S'inscrire | Disclaimer

   EN    FR    IT 

 










Légende :    VFR   VFR Marginal   IFR   IFR Intensif   IFR Très Intensif
Visi : 
Plafond : 
>= 8 km
>= 3000ft
5 à 8 km
1000 à 3000 ft
1500m à 5 km
500 à 1000 ft
800 à 1500m
200 à 500 ft
< 800m
< 200 ft
Symboles :   Orages  Brouillard  Fortes neiges  Fortes précipitations  Vent > 20 kt
SIGMETs :   Divers  Orages  Givrage  Turbulence  Onde Orograph.  Cendres Volcan.







- Altitude de l'aérodrome : 410 ft
- Code IATA : AVB


LIPA - Aviano AB Pordenone

DERNIER METAR :
  • 241455Z 17004KT 9999 FEW050 20/11 Q1022 RMK BKN SCT170 VIS MIN 9999 WIND THR05 13003KT WIND THR23 20006KT A3020 BLU

METARs EXPIRÉS :
  • 241355Z 20005KT 9999 SCT040 20/10 Q1022 RMK BKN BKN170 VIS MIN 9000N WIND THR05 21003KT WIND THR23 00000KT A3020 BLU
  • 241255Z 20004KT 9999 FEW025 SCT040 19/11 Q1023 RMK BKN BKN170 VIS MIN 9000N WIND THR05 18003KT WIND THR23 20006KT A3021 BLU

TAF TAF LIPA
Valide du 24 à 15h jusqu'au 25 à 00h UTC


241400Z 2415/2424 VRB03KT 8000 FEW025 BKN040
Pas de NOTAMs connus pour ce terrain.



MET'MAP, la Météo Aéronautique d'un coup d'oeil ! - Copyright ORBIFLY Décembre 2007 - Disclaimer

ORBIFLY MET'MAP TEAM :

Programmation & Développement : Alexandra Zaïnal
Conception & Développement : Baudouin d'Aumeries
Co-Programmation & Développement : Marc-Olivier Méhu
Soutien technique & logistique : Manuel Goepfert

Contact : metmap@orbifly.com




SOURCES & CREDITS :

   NOAA